Terminal Aerodrome Forecast
Issued by NWS

Home | Current Version | Previous Version | Text Only | Print | Product List | Glossary On
Versions: 1 2 3 4 5 6 7 8 9 10 11 12 13 14 15 16 17
000
FTUS43 KUNR 221139 CCA
TAFGCC
TAF COR
KGCC 221139Z 2212/2312 15012KT P6SM OVC100
      TEMPO 2212/2215 BKN015
     FM221800 15020KT P6SM OVC035
     FM230000 14011KT P6SM VCSH OVC015
     FM230700 10007KT 5SM -RA BR OVC006=

USA.gov is the U.S. government's official web portal to all federal, state and local government web resources and services.